sensor_id;sensor_type;location;lat;lon;timestamp;P1;durP1;ratioP1;P2;durP2;ratioP2
28862;SDS011;15994;51.796;13.006;2023-07-20T00:00:02;2.10;;;0.80;;
28862;SDS011;15994;51.796;13.006;2023-07-20T00:02:30;1.65;;;0.80;;
28862;SDS011;15994;51.796;13.006;2023-07-20T00:04:57;2.38;;;0.93;;
28862;SDS011;15994;51.796;13.006;2023-07-20T00:07:24;2.30;;;1.00;;
28862;SDS011;15994;51.796;13.006;2023-07-20T00:09:51;1.73;;;0.77;;
28862;SDS011;15994;51.796;13.006;2023-07-20T00:12:18;2.55;;;1.20;;
28862;SDS011;15994;51.796;13.006;2023-07-20T00:14:45;2.28;;;0.93;;
28862;SDS011;15994;51.796;13.006;2023-07-20T00:17:12;2.92;;;1.10;;
28862;SDS011;15994;51.796;13.006;2023-07-20T00:19:39;1.67;;;0.88;;
28862;SDS011;15994;51.796;13.006;2023-07-20T00:22:06;2.17;;;0.90;;
28862;SDS011;15994;51.796;13.006;2023-07-20T00:24:33;2.90;;;1.20;;
28862;SDS011;15994;51.796;13.006;2023-07-20T00:27:00;3.17;;;0.90;;
28862;SDS011;15994;51.796;13.006;2023-07-20T00:29:27;1.38;;;0.60;;
28862;SDS011;15994;51.796;13.006;2023-07-20T00:31:54;3.80;;;1.05;;
28862;SDS011;15994;51.796;13.006;2023-07-20T00:34:24;2.08;;;0.80;;
28862;SDS011;15994;51.796;13.006;2023-07-20T00:36:51;1.48;;;0.70;;
28862;SDS011;15994;51.796;13.006;2023-07-20T00:39:18;2.00;;;1.00;;
28862;SDS011;15994;51.796;13.006;2023-07-20T00:41:45;1.65;;;1.00;;
28862;SDS011;15994;51.796;13.006;2023-07-20T00:44:12;2.30;;;1.17;;
28862;SDS011;15994;51.796;13.006;2023-07-20T00:46:39;2.13;;;1.20;;
28862;SDS011;15994;51.796;13.006;2023-07-20T00:49:08;1.92;;;1.15;;
28862;SDS011;15994;51.796;13.006;2023-07-20T00:51:35;2.33;;;1.02;;
28862;SDS011;15994;51.796;13.006;2023-07-20T00:54:02;1.70;;;1.20;;
28862;SDS011;15994;51.796;13.006;2023-07-20T00:56:29;2.28;;;1.20;;
28862;SDS011;15994;51.796;13.006;2023-07-20T00:58:56;2.03;;;0.90;;
28862;SDS011;15994;51.796;13.006;2023-07-20T01:01:24;1.40;;;0.85;;
28862;SDS011;15994;51.796;13.006;2023-07-20T01:03:51;1.25;;;0.70;;
28862;SDS011;15994;51.796;13.006;2023-07-20T01:06:23;1.55;;;0.90;;
28862;SDS011;15994;51.796;13.006;2023-07-20T01:14:07;1.50;;;1.00;;
28862;SDS011;15994;51.796;13.006;2023-07-20T01:16:34;2.50;;;1.00;;
28862;SDS011;15994;51.796;13.006;2023-07-20T01:19:01;2.33;;;1.00;;
28862;SDS011;15994;51.796;13.006;2023-07-20T01:21:34;2.67;;;0.80;;
28862;SDS011;15994;51.796;13.006;2023-07-20T01:24:30;1.60;;;0.73;;
28862;SDS011;15994;51.796;13.006;2023-07-20T01:26:59;3.10;;;1.10;;
28862;SDS011;15994;51.796;13.006;2023-07-20T01:29:35;2.03;;;0.80;;
28862;SDS011;15994;51.796;13.006;2023-07-20T01:32:08;3.05;;;0.95;;
28862;SDS011;15994;51.796;13.006;2023-07-20T01:34:35;1.38;;;0.80;;
28862;SDS011;15994;51.796;13.006;2023-07-20T01:37:03;1.42;;;0.88;;
28862;SDS011;15994;51.796;13.006;2023-07-20T01:39:30;1.40;;;0.70;;
28862;SDS011;15994;51.796;13.006;2023-07-20T01:41:58;2.95;;;0.80;;
28862;SDS011;15994;51.796;13.006;2023-07-20T01:44:25;1.85;;;0.70;;
28862;SDS011;15994;51.796;13.006;2023-07-20T01:46:52;1.67;;;0.70;;
28862;SDS011;15994;51.796;13.006;2023-07-20T01:49:19;2.45;;;1.00;;
28862;SDS011;15994;51.796;13.006;2023-07-20T01:51:46;1.63;;;0.90;;
28862;SDS011;15994;51.796;13.006;2023-07-20T01:54:13;1.80;;;0.80;;
28862;SDS011;15994;51.796;13.006;2023-07-20T01:56:40;2.80;;;1.33;;
28862;SDS011;15994;51.796;13.006;2023-07-20T01:59:07;1.92;;;1.00;;
28862;SDS011;15994;51.796;13.006;2023-07-20T02:01:34;1.50;;;0.80;;
28862;SDS011;15994;51.796;13.006;2023-07-20T02:04:01;1.80;;;1.00;;
28862;SDS011;15994;51.796;13.006;2023-07-20T02:06:28;2.08;;;0.98;;
28862;SDS011;15994;51.796;13.006;2023-07-20T02:08:55;3.78;;;1.05;;
28862;SDS011;15994;51.796;13.006;2023-07-20T02:11:22;1.80;;;0.90;;
28862;SDS011;15994;51.796;13.006;2023-07-20T02:13:49;1.80;;;1.08;;
28862;SDS011;15994;51.796;13.006;2023-07-20T02:16:16;1.33;;;1.00;;
28862;SDS011;15994;51.796;13.006;2023-07-20T02:18:43;1.67;;;0.90;;
28862;SDS011;15994;51.796;13.006;2023-07-20T02:21:10;2.80;;;0.90;;
28862;SDS011;15994;51.796;13.006;2023-07-20T02:23:37;2.10;;;1.10;;
28862;SDS011;15994;51.796;13.006;2023-07-20T02:26:04;3.03;;;1.30;;
28862;SDS011;15994;51.796;13.006;2023-07-20T02:28:31;1.23;;;0.75;;
28862;SDS011;15994;51.796;13.006;2023-07-20T02:30:58;1.48;;;0.70;;
28862;SDS011;15994;51.796;13.006;2023-07-20T02:33:26;1.42;;;0.70;;
28862;SDS011;15994;51.796;13.006;2023-07-20T02:35:53;2.45;;;1.00;;
28862;SDS011;15994;51.796;13.006;2023-07-20T02:38:20;2.95;;;1.00;;
28862;SDS011;15994;51.796;13.006;2023-07-20T02:40:47;3.03;;;0.93;;
28862;SDS011;15994;51.796;13.006;2023-07-20T02:43:14;1.50;;;0.70;;
28862;SDS011;15994;51.796;13.006;2023-07-20T02:45:41;3.40;;;1.35;;
28862;SDS011;15994;51.796;13.006;2023-07-20T02:48:09;2.20;;;1.00;;
28862;SDS011;15994;51.796;13.006;2023-07-20T02:50:36;2.97;;;0.88;;
28862;SDS011;15994;51.796;13.006;2023-07-20T02:53:03;2.97;;;1.55;;
28862;SDS011;15994;51.796;13.006;2023-07-20T02:55:30;6.13;;;1.70;;
28862;SDS011;15994;51.796;13.006;2023-07-20T02:57:57;2.70;;;1.30;;
28862;SDS011;15994;51.796;13.006;2023-07-20T03:00:24;3.33;;;1.13;;
28862;SDS011;15994;51.796;13.006;2023-07-20T03:02:51;2.17;;;1.27;;
28862;SDS011;15994;51.796;13.006;2023-07-20T03:05:20;4.18;;;1.88;;
28862;SDS011;15994;51.796;13.006;2023-07-20T03:07:50;3.08;;;1.80;;
28862;SDS011;15994;51.796;13.006;2023-07-20T03:10:17;6.35;;;2.40;;
28862;SDS011;15994;51.796;13.006;2023-07-20T03:12:44;2.83;;;1.42;;
28862;SDS011;15994;51.796;13.006;2023-07-20T03:15:11;2.78;;;1.95;;
28862;SDS011;15994;51.796;13.006;2023-07-20T03:17:38;2.63;;;1.20;;
28862;SDS011;15994;51.796;13.006;2023-07-20T03:20:05;5.28;;;2.88;;
28862;SDS011;15994;51.796;13.006;2023-07-20T03:22:34;2.72;;;1.45;;
28862;SDS011;15994;51.796;13.006;2023-07-20T03:25:01;5.07;;;2.70;;
28862;SDS011;15994;51.796;13.006;2023-07-20T03:27:29;2.88;;;1.40;;
28862;SDS011;15994;51.796;13.006;2023-07-20T03:29:56;5.25;;;2.97;;
28862;SDS011;15994;51.796;13.006;2023-07-20T03:32:23;5.40;;;3.20;;
28862;SDS011;15994;51.796;13.006;2023-07-20T03:34:50;3.85;;;2.13;;
28862;SDS011;15994;51.796;13.006;2023-07-20T03:37:17;2.05;;;1.52;;
28862;SDS011;15994;51.796;13.006;2023-07-20T03:39:44;3.20;;;1.40;;
28862;SDS011;15994;51.796;13.006;2023-07-20T03:42:11;2.13;;;1.30;;
28862;SDS011;15994;51.796;13.006;2023-07-20T03:44:38;4.53;;;2.75;;
28862;SDS011;15994;51.796;13.006;2023-07-20T03:47:05;2.33;;;1.05;;
28862;SDS011;15994;51.796;13.006;2023-07-20T03:49:32;1.45;;;0.98;;
28862;SDS011;15994;51.796;13.006;2023-07-20T03:52:00;3.22;;;1.23;;
28862;SDS011;15994;51.796;13.006;2023-07-20T03:54:28;2.97;;;1.17;;
28862;SDS011;15994;51.796;13.006;2023-07-20T03:56:55;3.45;;;1.80;;
28862;SDS011;15994;51.796;13.006;2023-07-20T03:59:23;4.10;;;2.50;;
28862;SDS011;15994;51.796;13.006;2023-07-20T04:01:50;5.20;;;2.70;;
28862;SDS011;15994;51.796;13.006;2023-07-20T04:04:17;4.40;;;1.48;;
28862;SDS011;15994;51.796;13.006;2023-07-20T04:06:44;5.18;;;1.75;;
28862;SDS011;15994;51.796;13.006;2023-07-20T04:09:11;4.55;;;2.17;;
28862;SDS011;15994;51.796;13.006;2023-07-20T04:11:38;4.43;;;2.90;;
28862;SDS011;15994;51.796;13.006;2023-07-20T04:14:05;4.07;;;3.28;;
28862;SDS011;15994;51.796;13.006;2023-07-20T04:16:32;5.25;;;2.72;;
28862;SDS011;15994;51.796;13.006;2023-07-20T04:18:59;5.75;;;3.67;;
28862;SDS011;15994;51.796;13.006;2023-07-20T04:21:27;5.35;;;3.72;;
28862;SDS011;15994;51.796;13.006;2023-07-20T04:23:54;5.13;;;2.58;;
28862;SDS011;15994;51.796;13.006;2023-07-20T04:26:21;3.28;;;1.38;;
28862;SDS011;15994;51.796;13.006;2023-07-20T04:28:48;4.30;;;2.72;;
28862;SDS011;15994;51.796;13.006;2023-07-20T04:31:15;5.10;;;2.80;;
28862;SDS011;15994;51.796;13.006;2023-07-20T04:33:43;4.60;;;3.55;;
28862;SDS011;15994;51.796;13.006;2023-07-20T04:36:09;2.40;;;1.25;;
28862;SDS011;15994;51.796;13.006;2023-07-20T04:38:37;3.83;;;1.52;;
28862;SDS011;15994;51.796;13.006;2023-07-20T04:41:04;3.28;;;2.08;;
28862;SDS011;15994;51.796;13.006;2023-07-20T04:43:31;4.88;;;1.83;;
28862;SDS011;15994;51.796;13.006;2023-07-20T04:45:58;3.42;;;2.13;;
28862;SDS011;15994;51.796;13.006;2023-07-20T04:48:25;3.47;;;1.13;;
28862;SDS011;15994;51.796;13.006;2023-07-20T04:50:52;6.07;;;2.78;;
28862;SDS011;15994;51.796;13.006;2023-07-20T04:53:20;4.05;;;2.20;;
28862;SDS011;15994;51.796;13.006;2023-07-20T04:55:48;4.43;;;2.92;;
28862;SDS011;15994;51.796;13.006;2023-07-20T04:58:17;4.40;;;1.45;;
28862;SDS011;15994;51.796;13.006;2023-07-20T05:00:44;4.38;;;2.42;;
28862;SDS011;15994;51.796;13.006;2023-07-20T05:03:11;3.08;;;1.00;;
28862;SDS011;15994;51.796;13.006;2023-07-20T05:05:38;3.08;;;1.98;;
28862;SDS011;15994;51.796;13.006;2023-07-20T05:08:05;2.10;;;1.10;;
28862;SDS011;15994;51.796;13.006;2023-07-20T05:10:32;2.10;;;1.48;;
28862;SDS011;15994;51.796;13.006;2023-07-20T05:12:59;2.30;;;1.00;;
28862;SDS011;15994;51.796;13.006;2023-07-20T05:15:26;3.97;;;1.77;;
28862;SDS011;15994;51.796;13.006;2023-07-20T05:17:53;3.63;;;2.40;;
28862;SDS011;15994;51.796;13.006;2023-07-20T05:20:20;4.15;;;2.40;;
28862;SDS011;15994;51.796;13.006;2023-07-20T05:22:47;1.98;;;1.00;;
28862;SDS011;15994;51.796;13.006;2023-07-20T05:25:14;4.60;;;2.88;;
28862;SDS011;15994;51.796;13.006;2023-07-20T05:27:43;2.80;;;1.13;;
28862;SDS011;15994;51.796;13.006;2023-07-20T05:30:10;3.33;;;2.20;;
28862;SDS011;15994;51.796;13.006;2023-07-20T05:32:37;2.55;;;1.35;;
28862;SDS011;15994;51.796;13.006;2023-07-20T05:35:04;4.88;;;2.00;;
28862;SDS011;15994;51.796;13.006;2023-07-20T05:37:31;2.75;;;1.25;;
28862;SDS011;15994;51.796;13.006;2023-07-20T05:39:58;2.10;;;0.85;;
28862;SDS011;15994;51.796;13.006;2023-07-20T05:42:26;2.35;;;1.27;;
28862;SDS011;15994;51.796;13.006;2023-07-20T05:44:53;4.35;;;2.20;;
28862;SDS011;15994;51.796;13.006;2023-07-20T05:47:20;5.40;;;2.80;;
28862;SDS011;15994;51.796;13.006;2023-07-20T05:49:47;3.17;;;1.90;;
28862;SDS011;15994;51.796;13.006;2023-07-20T05:52:14;2.50;;;1.20;;
28862;SDS011;15994;51.796;13.006;2023-07-20T05:54:41;6.28;;;3.25;;
28862;SDS011;15994;51.796;13.006;2023-07-20T05:57:08;4.50;;;2.83;;
28862;SDS011;15994;51.796;13.006;2023-07-20T05:59:35;3.85;;;2.88;;
28862;SDS011;15994;51.796;13.006;2023-07-20T06:02:03;3.03;;;1.73;;
28862;SDS011;15994;51.796;13.006;2023-07-20T06:04:30;4.88;;;3.10;;
28862;SDS011;15994;51.796;13.006;2023-07-20T06:06:57;5.38;;;3.15;;
28862;SDS011;15994;51.796;13.006;2023-07-20T06:09:24;2.13;;;1.40;;
28862;SDS011;15994;51.796;13.006;2023-07-20T06:11:52;3.72;;;2.15;;
28862;SDS011;15994;51.796;13.006;2023-07-20T06:14:19;2.08;;;1.20;;
28862;SDS011;15994;51.796;13.006;2023-07-20T06:16:46;3.47;;;1.70;;
28862;SDS011;15994;51.796;13.006;2023-07-20T06:19:13;2.88;;;2.28;;
28862;SDS011;15994;51.796;13.006;2023-07-20T06:21:41;2.60;;;1.67;;
28862;SDS011;15994;51.796;13.006;2023-07-20T06:24:08;4.43;;;2.25;;
28862;SDS011;15994;51.796;13.006;2023-07-20T06:26:35;6.13;;;3.85;;
28862;SDS011;15994;51.796;13.006;2023-07-20T06:29:04;2.53;;;1.10;;
28862;SDS011;15994;51.796;13.006;2023-07-20T06:31:32;5.35;;;3.47;;
28862;SDS011;15994;51.796;13.006;2023-07-20T06:33:59;4.00;;;2.53;;
28862;SDS011;15994;51.796;13.006;2023-07-20T06:36:27;4.78;;;3.47;;
28862;SDS011;15994;51.796;13.006;2023-07-20T06:38:54;3.70;;;2.75;;
28862;SDS011;15994;51.796;13.006;2023-07-20T06:41:22;4.55;;;1.80;;
28862;SDS011;15994;51.796;13.006;2023-07-20T06:43:49;3.55;;;2.47;;
28862;SDS011;15994;51.796;13.006;2023-07-20T06:46:17;3.90;;;2.58;;
28862;SDS011;15994;51.796;13.006;2023-07-20T06:48:44;5.25;;;4.15;;
28862;SDS011;15994;51.796;13.006;2023-07-20T06:51:11;4.18;;;2.90;;
28862;SDS011;15994;51.796;13.006;2023-07-20T06:53:38;3.70;;;1.88;;
28862;SDS011;15994;51.796;13.006;2023-07-20T06:56:05;5.28;;;3.35;;
28862;SDS011;15994;51.796;13.006;2023-07-20T06:58:32;1.88;;;1.08;;
28862;SDS011;15994;51.796;13.006;2023-07-20T07:01:04;6.28;;;3.72;;
28862;SDS011;15994;51.796;13.006;2023-07-20T07:03:31;4.85;;;3.90;;
28862;SDS011;15994;51.796;13.006;2023-07-20T07:05:58;1.75;;;1.00;;
28862;SDS011;15994;51.796;13.006;2023-07-20T07:08:25;5.38;;;2.83;;
28862;SDS011;15994;51.796;13.006;2023-07-20T07:10:52;4.03;;;2.50;;
28862;SDS011;15994;51.796;13.006;2023-07-20T07:13:19;3.80;;;2.65;;
28862;SDS011;15994;51.796;13.006;2023-07-20T07:15:46;4.20;;;2.53;;
28862;SDS011;15994;51.796;13.006;2023-07-20T07:18:13;3.22;;;1.70;;
28862;SDS011;15994;51.796;13.006;2023-07-20T07:20:40;4.57;;;2.40;;
28862;SDS011;15994;51.796;13.006;2023-07-20T07:23:07;4.30;;;2.00;;
28862;SDS011;15994;51.796;13.006;2023-07-20T07:25:34;3.00;;;1.80;;
28862;SDS011;15994;51.796;13.006;2023-07-20T07:28:01;3.85;;;1.50;;
28862;SDS011;15994;51.796;13.006;2023-07-20T07:30:28;3.20;;;1.65;;
28862;SDS011;15994;51.796;13.006;2023-07-20T07:32:55;4.10;;;1.77;;
28862;SDS011;15994;51.796;13.006;2023-07-20T07:35:22;1.88;;;1.00;;
28862;SDS011;15994;51.796;13.006;2023-07-20T07:37:49;2.30;;;1.40;;
28862;SDS011;15994;51.796;13.006;2023-07-20T07:40:16;1.48;;;0.70;;
28862;SDS011;15994;51.796;13.006;2023-07-20T07:42:43;1.33;;;0.57;;
28862;SDS011;15994;51.796;13.006;2023-07-20T07:45:11;3.53;;;1.10;;
28862;SDS011;15994;51.796;13.006;2023-07-20T07:47:38;3.03;;;1.00;;
28862;SDS011;15994;51.796;13.006;2023-07-20T07:50:05;1.60;;;0.80;;
28862;SDS011;15994;51.796;13.006;2023-07-20T07:52:32;2.55;;;1.10;;
28862;SDS011;15994;51.796;13.006;2023-07-20T07:54:59;2.95;;;0.80;;
28862;SDS011;15994;51.796;13.006;2023-07-20T07:57:26;2.97;;;1.08;;
28862;SDS011;15994;51.796;13.006;2023-07-20T07:59:53;1.10;;;0.65;;
28862;SDS011;15994;51.796;13.006;2023-07-20T08:02:20;2.63;;;1.00;;
28862;SDS011;15994;51.796;13.006;2023-07-20T08:04:47;1.77;;;0.82;;
28862;SDS011;15994;51.796;13.006;2023-07-20T08:07:17;1.67;;;1.10;;
28862;SDS011;15994;51.796;13.006;2023-07-20T08:09:44;1.90;;;0.80;;
28862;SDS011;15994;51.796;13.006;2023-07-20T08:12:11;1.88;;;0.90;;
28862;SDS011;15994;51.796;13.006;2023-07-20T08:14:38;1.55;;;0.77;;
28862;SDS011;15994;51.796;13.006;2023-07-20T08:17:05;1.67;;;0.85;;
28862;SDS011;15994;51.796;13.006;2023-07-20T08:19:32;1.55;;;0.60;;
28862;SDS011;15994;51.796;13.006;2023-07-20T08:22:00;2.40;;;0.90;;
28862;SDS011;15994;51.796;13.006;2023-07-20T08:24:27;1.25;;;0.60;;
28862;SDS011;15994;51.796;13.006;2023-07-20T08:26:53;1.08;;;0.63;;
28862;SDS011;15994;51.796;13.006;2023-07-20T08:29:20;3.00;;;0.55;;
28862;SDS011;15994;51.796;13.006;2023-07-20T08:31:47;0.75;;;0.50;;
28862;SDS011;15994;51.796;13.006;2023-07-20T08:34:14;1.63;;;0.60;;
28862;SDS011;15994;51.796;13.006;2023-07-20T08:36:41;1.02;;;0.40;;
28862;SDS011;15994;51.796;13.006;2023-07-20T08:39:08;1.25;;;0.45;;
28862;SDS011;15994;51.796;13.006;2023-07-20T08:41:35;1.85;;;0.50;;
28862;SDS011;15994;51.796;13.006;2023-07-20T08:44:04;1.73;;;0.60;;
28862;SDS011;15994;51.796;13.006;2023-07-20T08:46:31;1.23;;;0.50;;
28862;SDS011;15994;51.796;13.006;2023-07-20T08:48:59;0.57;;;0.40;;
28862;SDS011;15994;51.796;13.006;2023-07-20T08:51:28;1.55;;;0.40;;
28862;SDS011;15994;51.796;13.006;2023-07-20T08:53:56;1.00;;;0.40;;
28862;SDS011;15994;51.796;13.006;2023-07-20T08:56:23;1.52;;;0.47;;
28862;SDS011;15994;51.796;13.006;2023-07-20T08:58:51;1.13;;;0.57;;
28862;SDS011;15994;51.796;13.006;2023-07-20T09:01:19;1.02;;;0.60;;
28862;SDS011;15994;51.796;13.006;2023-07-20T09:03:47;1.27;;;0.57;;
28862;SDS011;15994;51.796;13.006;2023-07-20T09:06:14;1.15;;;0.77;;
28862;SDS011;15994;51.796;13.006;2023-07-20T09:08:42;1.83;;;0.70;;
28862;SDS011;15994;51.796;13.006;2023-07-20T09:11:11;0.57;;;0.40;;
28862;SDS011;15994;51.796;13.006;2023-07-20T09:13:38;3.00;;;0.80;;
28862;SDS011;15994;51.796;13.006;2023-07-20T09:16:05;1.45;;;0.50;;
28862;SDS011;15994;51.796;13.006;2023-07-20T09:18:32;1.00;;;0.50;;
28862;SDS011;15994;51.796;13.006;2023-07-20T09:21:03;3.15;;;0.70;;
28862;SDS011;15994;51.796;13.006;2023-07-20T09:25:58;0.90;;;0.45;;
28862;SDS011;15994;51.796;13.006;2023-07-20T09:28:25;1.88;;;0.50;;
28862;SDS011;15994;51.796;13.006;2023-07-20T09:30:54;0.40;;;0.40;;
28862;SDS011;15994;51.796;13.006;2023-07-20T09:33:22;0.95;;;0.57;;
28862;SDS011;15994;51.796;13.006;2023-07-20T09:35:49;2.38;;;0.55;;
28862;SDS011;15994;51.796;13.006;2023-07-20T09:38:16;1.58;;;0.30;;
28862;SDS011;15994;51.796;13.006;2023-07-20T09:40:43;0.85;;;0.40;;
28862;SDS011;15994;51.796;13.006;2023-07-20T09:43:10;0.60;;;0.40;;
28862;SDS011;15994;51.796;13.006;2023-07-20T09:45:41;1.17;;;0.52;;
28862;SDS011;15994;51.796;13.006;2023-07-20T09:48:09;0.65;;;0.40;;
28862;SDS011;15994;51.796;13.006;2023-07-20T09:50:40;1.00;;;0.30;;
28862;SDS011;15994;51.796;13.006;2023-07-20T09:53:09;3.33;;;0.40;;
28862;SDS011;15994;51.796;13.006;2023-07-20T09:55:39;1.90;;;0.40;;
28862;SDS011;15994;51.796;13.006;2023-07-20T09:58:06;1.70;;;0.40;;
28862;SDS011;15994;51.796;13.006;2023-07-20T10:00:38;1.70;;;0.43;;
28862;SDS011;15994;51.796;13.006;2023-07-20T10:03:05;1.42;;;0.30;;
28862;SDS011;15994;51.796;13.006;2023-07-20T10:05:33;3.55;;;0.40;;
28862;SDS011;15994;51.796;13.006;2023-07-20T10:08:01;1.02;;;0.40;;
28862;SDS011;15994;51.796;13.006;2023-07-20T10:10:30;0.45;;;0.20;;
28862;SDS011;15994;51.796;13.006;2023-07-20T10:12:58;0.85;;;0.40;;
28862;SDS011;15994;51.796;13.006;2023-07-20T10:15:30;1.15;;;0.30;;
28862;SDS011;15994;51.796;13.006;2023-07-20T10:18:03;2.10;;;0.63;;
28862;SDS011;15994;51.796;13.006;2023-07-20T10:20:31;0.93;;;0.30;;
28862;SDS011;15994;51.796;13.006;2023-07-20T10:22:58;0.50;;;0.30;;
28862;SDS011;15994;51.796;13.006;2023-07-20T10:25:26;0.85;;;0.28;;
28862;SDS011;15994;51.796;13.006;2023-07-20T10:27:53;0.75;;;0.35;;
28862;SDS011;15994;51.796;13.006;2023-07-20T10:30:21;2.30;;;0.32;;
28862;SDS011;15994;51.796;13.006;2023-07-20T10:32:48;1.35;;;0.50;;
28862;SDS011;15994;51.796;13.006;2023-07-20T10:35:16;2.35;;;0.52;;
28862;SDS011;15994;51.796;13.006;2023-07-20T10:43:00;0.50;;;0.22;;
28862;SDS011;15994;51.796;13.006;2023-07-20T10:48:04;0.98;;;0.40;;
28862;SDS011;15994;51.796;13.006;2023-07-20T10:50:32;0.75;;;0.32;;
28862;SDS011;15994;51.796;13.006;2023-07-20T10:53:13;1.05;;;0.43;;
28862;SDS011;15994;51.796;13.006;2023-07-20T10:55:41;0.63;;;0.30;;
28862;SDS011;15994;51.796;13.006;2023-07-20T10:58:09;1.05;;;0.30;;
28862;SDS011;15994;51.796;13.006;2023-07-20T11:00:37;1.52;;;0.40;;
28862;SDS011;15994;51.796;13.006;2023-07-20T11:03:04;2.65;;;0.30;;
28862;SDS011;15994;51.796;13.006;2023-07-20T11:05:35;1.00;;;0.35;;
28862;SDS011;15994;51.796;13.006;2023-07-20T11:08:03;2.30;;;0.70;;
28862;SDS011;15994;51.796;13.006;2023-07-20T11:10:30;1.90;;;0.40;;
28862;SDS011;15994;51.796;13.006;2023-07-20T11:16:01;1.17;;;0.40;;
28862;SDS011;15994;51.796;13.006;2023-07-20T11:18:30;0.75;;;0.40;;
28862;SDS011;15994;51.796;13.006;2023-07-20T11:21:00;1.88;;;0.50;;
28862;SDS011;15994;51.796;13.006;2023-07-20T11:23:28;0.90;;;0.50;;
28862;SDS011;15994;51.796;13.006;2023-07-20T11:25:55;1.33;;;0.45;;
28862;SDS011;15994;51.796;13.006;2023-07-20T11:28:24;1.55;;;0.57;;
28862;SDS011;15994;51.796;13.006;2023-07-20T11:30:52;0.68;;;0.40;;
28862;SDS011;15994;51.796;13.006;2023-07-20T11:33:19;0.82;;;0.38;;
28862;SDS011;15994;51.796;13.006;2023-07-20T11:35:48;1.17;;;0.50;;
28862;SDS011;15994;51.796;13.006;2023-07-20T11:38:16;1.25;;;0.60;;
28862;SDS011;15994;51.796;13.006;2023-07-20T11:40:46;1.35;;;0.60;;
28862;SDS011;15994;51.796;13.006;2023-07-20T11:43:13;1.60;;;0.43;;
28862;SDS011;15994;51.796;13.006;2023-07-20T11:45:40;2.70;;;0.70;;
28862;SDS011;15994;51.796;13.006;2023-07-20T11:48:14;1.02;;;0.60;;
28862;SDS011;15994;51.796;13.006;2023-07-20T11:50:42;3.63;;;0.50;;
28862;SDS011;15994;51.796;13.006;2023-07-20T11:53:09;2.60;;;0.50;;
28862;SDS011;15994;51.796;13.006;2023-07-20T11:55:36;2.70;;;0.70;;
28862;SDS011;15994;51.796;13.006;2023-07-20T11:58:07;1.67;;;0.77;;
28862;SDS011;15994;51.796;13.006;2023-07-20T12:00:34;2.13;;;0.60;;
28862;SDS011;15994;51.796;13.006;2023-07-20T12:03:04;1.33;;;0.40;;
28862;SDS011;15994;51.796;13.006;2023-07-20T12:05:32;2.00;;;0.30;;
28862;SDS011;15994;51.796;13.006;2023-07-20T12:07:59;1.02;;;0.40;;
28862;SDS011;15994;51.796;13.006;2023-07-20T12:10:26;1.10;;;0.50;;
28862;SDS011;15994;51.796;13.006;2023-07-20T12:12:54;1.33;;;0.60;;
28862;SDS011;15994;51.796;13.006;2023-07-20T12:15:25;0.85;;;0.52;;
28862;SDS011;15994;51.796;13.006;2023-07-20T12:17:55;2.58;;;0.55;;
28862;SDS011;15994;51.796;13.006;2023-07-20T12:22:55;1.80;;;0.60;;
28862;SDS011;15994;51.796;13.006;2023-07-20T12:25:22;0.85;;;0.40;;
28862;SDS011;15994;51.796;13.006;2023-07-20T12:27:49;1.25;;;0.30;;
28862;SDS011;15994;51.796;13.006;2023-07-20T12:30:16;0.43;;;0.30;;
28862;SDS011;15994;51.796;13.006;2023-07-20T12:32:43;1.80;;;0.40;;
28862;SDS011;15994;51.796;13.006;2023-07-20T12:35:10;2.17;;;0.45;;
28862;SDS011;15994;51.796;13.006;2023-07-20T12:37:39;1.48;;;0.32;;
28862;SDS011;15994;51.796;13.006;2023-07-20T12:40:07;1.25;;;0.40;;
28862;SDS011;15994;51.796;13.006;2023-07-20T12:42:35;0.93;;;0.30;;
28862;SDS011;15994;51.796;13.006;2023-07-20T12:45:03;0.70;;;0.32;;
28862;SDS011;15994;51.796;13.006;2023-07-20T12:47:30;0.63;;;0.30;;
28862;SDS011;15994;51.796;13.006;2023-07-20T12:49:57;0.45;;;0.30;;
28862;SDS011;15994;51.796;13.006;2023-07-20T12:52:24;1.05;;;0.40;;
28862;SDS011;15994;51.796;13.006;2023-07-20T12:54:51;1.98;;;0.60;;
28862;SDS011;15994;51.796;13.006;2023-07-20T12:57:18;0.88;;;0.40;;
28862;SDS011;15994;51.796;13.006;2023-07-20T12:59:45;0.98;;;0.50;;
28862;SDS011;15994;51.796;13.006;2023-07-20T13:02:12;1.33;;;0.50;;
28862;SDS011;15994;51.796;13.006;2023-07-20T13:04:39;0.88;;;0.30;;
28862;SDS011;15994;51.796;13.006;2023-07-20T13:07:09;2.70;;;0.38;;
28862;SDS011;15994;51.796;13.006;2023-07-20T13:09:37;0.50;;;0.30;;
28862;SDS011;15994;51.796;13.006;2023-07-20T13:12:04;0.50;;;0.22;;
28862;SDS011;15994;51.796;13.006;2023-07-20T13:14:31;0.50;;;0.22;;
28862;SDS011;15994;51.796;13.006;2023-07-20T13:16:58;1.27;;;0.30;;
28862;SDS011;15994;51.796;13.006;2023-07-20T13:19:25;1.67;;;0.40;;
28862;SDS011;15994;51.796;13.006;2023-07-20T13:21:52;0.68;;;0.38;;
28862;SDS011;15994;51.796;13.006;2023-07-20T13:24:19;1.23;;;0.30;;
28862;SDS011;15994;51.796;13.006;2023-07-20T13:26:46;1.85;;;0.40;;
28862;SDS011;15994;51.796;13.006;2023-07-20T13:29:13;2.13;;;0.40;;
28862;SDS011;15994;51.796;13.006;2023-07-20T13:31:40;1.00;;;0.30;;
28862;SDS011;15994;51.796;13.006;2023-07-20T13:34:07;2.90;;;0.40;;
28862;SDS011;15994;51.796;13.006;2023-07-20T13:36:34;1.08;;;0.30;;
28862;SDS011;15994;51.796;13.006;2023-07-20T13:39:02;0.85;;;0.30;;
28862;SDS011;15994;51.796;13.006;2023-07-20T13:41:30;1.30;;;0.20;;
28862;SDS011;15994;51.796;13.006;2023-07-20T13:43:57;0.32;;;0.30;;
28862;SDS011;15994;51.796;13.006;2023-07-20T13:46:24;0.75;;;0.35;;
28862;SDS011;15994;51.796;13.006;2023-07-20T13:48:51;0.38;;;0.30;;
28862;SDS011;15994;51.796;13.006;2023-07-20T13:51:18;2.97;;;0.68;;
28862;SDS011;15994;51.796;13.006;2023-07-20T13:53:46;0.30;;;0.20;;
28862;SDS011;15994;51.796;13.006;2023-07-20T13:56:13;2.28;;;0.40;;
28862;SDS011;15994;51.796;13.006;2023-07-20T13:58:40;0.75;;;0.32;;
28862;SDS011;15994;51.796;13.006;2023-07-20T14:01:07;1.95;;;0.40;;
28862;SDS011;15994;51.796;13.006;2023-07-20T14:03:34;1.33;;;0.30;;
28862;SDS011;15994;51.796;13.006;2023-07-20T14:06:02;0.30;;;0.20;;
28862;SDS011;15994;51.796;13.006;2023-07-20T14:08:29;0.40;;;0.30;;
28862;SDS011;15994;51.796;13.006;2023-07-20T14:10:56;0.93;;;0.30;;
28862;SDS011;15994;51.796;13.006;2023-07-20T14:13:23;0.60;;;0.30;;
28862;SDS011;15994;51.796;13.006;2023-07-20T14:15:50;0.85;;;0.30;;
28862;SDS011;15994;51.796;13.006;2023-07-20T14:18:17;0.60;;;0.30;;
28862;SDS011;15994;51.796;13.006;2023-07-20T14:20:44;0.93;;;0.32;;
28862;SDS011;15994;51.796;13.006;2023-07-20T14:23:11;0.50;;;0.30;;
28862;SDS011;15994;51.796;13.006;2023-07-20T14:25:39;0.75;;;0.25;;
28862;SDS011;15994;51.796;13.006;2023-07-20T14:28:06;0.85;;;0.32;;
28862;SDS011;15994;51.796;13.006;2023-07-20T14:30:33;1.52;;;0.55;;
28862;SDS011;15994;51.796;13.006;2023-07-20T14:33:00;0.80;;;0.30;;
28862;SDS011;15994;51.796;13.006;2023-07-20T14:35:27;1.48;;;0.30;;
28862;SDS011;15994;51.796;13.006;2023-07-20T14:37:54;1.10;;;0.30;;
28862;SDS011;15994;51.796;13.006;2023-07-20T14:40:21;2.08;;;0.43;;
28862;SDS011;15994;51.796;13.006;2023-07-20T14:42:48;0.88;;;0.40;;
28862;SDS011;15994;51.796;13.006;2023-07-20T14:45:15;0.98;;;0.40;;
28862;SDS011;15994;51.796;13.006;2023-07-20T14:47:42;0.68;;;0.40;;
28862;SDS011;15994;51.796;13.006;2023-07-20T14:50:10;1.45;;;0.30;;
28862;SDS011;15994;51.796;13.006;2023-07-20T14:52:37;0.80;;;0.35;;
28862;SDS011;15994;51.796;13.006;2023-07-20T14:55:04;1.55;;;0.47;;